createdAt,value
2022-09-06T00:00:43.407Z,9.43
2022-09-06T00:03:10.027Z,10.33
2022-09-06T00:05:37.607Z,9.77
2022-09-06T00:08:05.786Z,10.80
2022-09-06T00:10:33.575Z,9.40
2022-09-06T00:13:02.740Z,9.90
2022-09-06T00:15:29.563Z,11.13
2022-09-06T00:17:58.690Z,9.03
2022-09-06T00:20:25.422Z,11.32
2022-09-06T00:22:52.108Z,8.88
2022-09-06T00:25:18.676Z,9.48
2022-09-06T00:27:45.258Z,10.57
2022-09-06T00:30:13.580Z,10.00
2022-09-06T00:32:40.136Z,9.53
2022-09-06T00:35:07.257Z,9.93
2022-09-06T00:37:33.859Z,10.00
2022-09-06T00:40:00.568Z,9.32
2022-09-06T00:42:27.184Z,10.32
2022-09-06T00:44:53.968Z,11.60
2022-09-06T00:47:22.004Z,9.50
2022-09-06T00:49:52.554Z,9.75
2022-09-06T00:52:19.740Z,11.55
2022-09-06T00:54:47.631Z,11.18
2022-09-06T00:57:15.409Z,9.80
2022-09-06T00:59:43.388Z,11.23
2022-09-06T01:02:10.932Z,11.17
2022-09-06T01:04:43.699Z,9.90
2022-09-06T01:07:22.655Z,11.07
2022-09-06T01:10:05.187Z,11.18
2022-09-06T01:12:42.486Z,11.35
2022-09-06T01:15:20.887Z,10.63
2022-09-06T01:17:59.235Z,10.57
2022-09-06T01:20:41.634Z,11.38
2022-09-06T01:23:52.687Z,10.23
2022-09-06T01:26:52.389Z,10.32
2022-09-06T01:29:28.229Z,13.82
2022-09-06T01:32:00.706Z,12.32
2022-09-06T01:34:35.212Z,10.20
2022-09-06T01:37:10.269Z,10.13
2022-09-06T01:39:39.358Z,11.27
2022-09-06T01:42:10.023Z,11.38
2022-09-06T01:44:40.212Z,11.40
2022-09-06T01:47:17.385Z,10.77
2022-09-06T01:49:57.365Z,12.18
2022-09-06T01:52:33.904Z,10.43
2022-09-06T01:55:13.613Z,10.55
2022-09-06T01:57:54.440Z,11.95
2022-09-06T02:00:23.137Z,10.48
2022-09-06T02:02:58.897Z,11.43
2022-09-06T02:05:30.854Z,12.30
2022-09-06T02:08:01.567Z,10.48
2022-09-06T02:10:33.901Z,10.83
2022-09-06T02:13:04.441Z,10.52
2022-09-06T02:15:34.923Z,10.35
2022-09-06T02:18:06.572Z,11.35
2022-09-06T02:20:36.645Z,12.55
2022-09-06T02:23:06.504Z,12.55
2022-09-06T02:25:37.090Z,10.83
2022-09-06T02:28:05.082Z,11.07
2022-09-06T02:30:34.800Z,12.25
2022-09-06T02:33:07.454Z,11.20
2022-09-06T02:35:42.861Z,12.10
2022-09-06T02:38:09.782Z,11.55
2022-09-06T02:40:36.914Z,10.90
2022-09-06T02:43:03.561Z,11.47
2022-09-06T02:45:30.202Z,10.43
2022-09-06T02:47:58.102Z,12.00
2022-09-06T02:50:24.852Z,10.55
2022-09-06T02:53:01.519Z,13.25
2022-09-06T02:55:28.235Z,12.18
2022-09-06T02:57:54.762Z,10.05
2022-09-06T03:00:21.542Z,9.83
2022-09-06T03:02:48.176Z,10.88
2022-09-06T03:05:16.486Z,10.50
2022-09-06T03:07:43.085Z,10.35
2022-09-06T03:10:10.054Z,10.10
2022-09-06T03:12:36.745Z,10.75
2022-09-06T03:15:05.000Z,12.73
2022-09-06T03:17:31.702Z,10.43
2022-09-06T03:19:58.268Z,11.00
2022-09-06T03:22:26.376Z,10.57
2022-09-06T03:24:52.973Z,12.18
2022-09-06T03:27:19.565Z,10.05
2022-09-06T03:29:46.130Z,10.93
2022-09-06T03:32:12.872Z,11.35
2022-09-06T03:34:39.558Z,10.83
2022-09-06T03:37:06.148Z,11.27
2022-09-06T03:39:34.374Z,10.15
2022-09-06T03:42:00.949Z,9.82
2022-09-06T03:44:27.589Z,10.10
2022-09-06T03:46:54.206Z,9.80
2022-09-06T03:49:20.794Z,11.77
2022-09-06T03:51:47.559Z,11.73
2022-09-06T03:54:14.128Z,10.07
2022-09-06T03:56:42.097Z,10.07
2022-09-06T03:59:08.666Z,10.23
2022-09-06T04:01:35.381Z,11.97
2022-09-06T04:04:02.389Z,10.73
2022-09-06T04:06:29.150Z,9.60
2022-09-06T04:08:55.744Z,10.30
2022-09-06T04:11:22.345Z,11.95
2022-09-06T04:13:50.285Z,11.35
2022-09-06T04:16:17.010Z,11.07
2022-09-06T04:18:43.584Z,13.17
2022-09-06T04:21:10.396Z,11.32
2022-09-06T04:23:39.929Z,9.93
2022-09-06T04:26:07.076Z,12.07
2022-09-06T04:28:33.623Z,10.90
2022-09-06T04:31:05.184Z,13.93
2022-09-06T04:33:33.472Z,11.47
2022-09-06T04:36:01.653Z,10.38
2022-09-06T04:38:30.309Z,10.55
2022-09-06T04:40:56.891Z,10.95
2022-09-06T04:43:24.269Z,13.05
2022-09-06T04:45:50.905Z,10.13
2022-09-06T04:48:19.073Z,9.93
2022-09-06T04:50:45.758Z,9.43
2022-09-06T04:53:12.443Z,11.20
2022-09-06T04:55:39.156Z,11.02
2022-09-06T04:58:05.944Z,9.98
2022-09-06T05:00:34.645Z,13.63
2022-09-06T05:03:01.491Z,10.27
2022-09-06T05:05:29.725Z,12.33
2022-09-06T05:07:57.019Z,12.83
2022-09-06T05:10:24.319Z,10.85
2022-09-06T05:12:52.318Z,10.73
2022-09-06T05:15:20.179Z,10.23
2022-09-06T05:17:46.917Z,10.48
2022-09-06T05:20:13.972Z,11.38
2022-09-06T05:22:41.924Z,13.53
2022-09-06T05:25:09.822Z,11.17
2022-09-06T05:27:36.657Z,11.20
2022-09-06T05:30:03.652Z,10.25
2022-09-06T05:32:30.250Z,11.50
2022-09-06T05:34:56.813Z,10.45
2022-09-06T05:37:23.777Z,11.15
2022-09-06T05:39:51.750Z,9.80
2022-09-06T05:42:19.439Z,10.02
2022-09-06T05:44:46.176Z,11.65
2022-09-06T05:47:12.827Z,11.10
2022-09-06T05:49:39.416Z,11.18
2022-09-06T05:52:06.095Z,11.23
2022-09-06T05:54:32.783Z,11.98
2022-09-06T05:57:00.684Z,11.23
2022-09-06T05:59:27.248Z,10.97
2022-09-06T06:01:54.583Z,11.68
2022-09-06T06:04:21.408Z,11.52
2022-09-06T06:06:48.296Z,12.20
2022-09-06T06:09:15.789Z,15.25
2022-09-06T06:11:42.547Z,11.27
2022-09-06T06:14:10.645Z,11.32
2022-09-06T06:16:37.733Z,12.70
2022-09-06T06:19:04.495Z,12.95
2022-09-06T06:21:32.771Z,13.55
2022-09-06T06:24:00.934Z,12.48
2022-09-06T06:26:29.783Z,11.05
2022-09-06T06:28:56.386Z,12.75
2022-09-06T06:31:24.779Z,13.70
2022-09-06T06:33:51.584Z,9.90
2022-09-06T06:36:22.680Z,9.63
2022-09-06T06:38:51.011Z,9.73
2022-09-06T06:41:19.354Z,10.63
2022-09-06T06:43:45.920Z,11.43
2022-09-06T06:46:14.954Z,10.70
2022-09-06T06:48:44.243Z,12.18
2022-09-06T06:51:12.224Z,12.07
2022-09-06T06:53:38.823Z,9.13
2022-09-06T06:56:14.614Z,9.88
2022-09-06T06:58:41.304Z,10.07
2022-09-06T07:01:08.023Z,10.00
2022-09-06T07:03:34.678Z,10.55
2022-09-06T07:08:36.700Z,10.48
2022-09-06T07:11:03.590Z,9.30
2022-09-06T07:13:30.737Z,7.85
2022-09-06T07:16:11.882Z,10.13
2022-09-06T07:18:38.771Z,10.50
2022-09-06T07:24:08.741Z,8.75
2022-09-06T07:26:37.576Z,9.57
2022-09-06T07:29:05.933Z,8.77
2022-09-06T07:34:19.673Z,7.90
2022-09-06T07:36:47.641Z,9.80
2022-09-06T07:39:14.240Z,9.25
2022-09-06T07:41:42.742Z,10.07
2022-09-06T07:44:09.315Z,9.90
2022-09-06T07:46:36.124Z,8.40
2022-09-06T07:49:04.254Z,9.73
2022-09-06T07:51:31.152Z,8.27
2022-09-06T07:54:13.323Z,7.85
2022-09-06T07:56:46.150Z,8.90
2022-09-06T07:59:12.732Z,10.90
2022-09-06T08:01:39.861Z,7.65
2022-09-06T08:04:08.267Z,7.55
2022-09-06T08:09:25.658Z,8.27
2022-09-06T08:11:52.258Z,8.13
2022-09-06T08:14:18.947Z,7.53
2022-09-06T08:16:45.496Z,7.55
2022-09-06T08:19:12.174Z,9.38
2022-09-06T08:21:39.060Z,9.57
2022-09-06T08:24:07.706Z,7.90
2022-09-06T08:26:37.397Z,7.57
2022-09-06T08:29:05.897Z,7.68
2022-09-06T08:31:33.665Z,7.40
2022-09-06T08:34:01.222Z,6.90
2022-09-06T08:36:28.716Z,9.52
2022-09-06T08:38:55.429Z,9.10
2022-09-06T08:41:25.779Z,7.57
2022-09-06T08:46:50.759Z,8.10
2022-09-06T08:49:17.614Z,6.35
2022-09-06T08:51:58.774Z,9.80
2022-09-06T08:54:32.876Z,6.93
2022-09-06T08:57:09.410Z,7.43
2022-09-06T08:59:39.742Z,7.93
2022-09-06T09:02:12.631Z,7.03
2022-09-06T09:04:43.035Z,7.72
2022-09-06T09:07:24.550Z,6.18
2022-09-06T09:09:53.439Z,6.20
2022-09-06T09:12:23.772Z,6.22
2022-09-06T09:14:56.383Z,6.85
2022-09-06T09:17:27.555Z,7.45
2022-09-06T09:19:55.121Z,5.97
2022-09-06T09:22:24.270Z,6.90
2022-09-06T09:24:52.622Z,8.88
2022-09-06T09:27:24.061Z,7.53
2022-09-06T09:32:46.959Z,7.57
2022-09-06T09:35:21.686Z,7.30
2022-09-06T09:37:51.257Z,7.80
2022-09-06T09:40:29.455Z,6.22
2022-09-06T09:43:10.296Z,6.18
2022-09-06T09:45:38.283Z,7.60
2022-09-06T09:48:18.564Z,7.55
2022-09-06T09:50:45.173Z,7.70
2022-09-06T09:53:13.824Z,6.97
2022-09-06T09:55:41.116Z,9.40
2022-09-06T09:58:17.263Z,7.22
2022-09-06T10:00:45.399Z,7.90
2022-09-06T10:03:13.863Z,8.03
2022-09-06T10:05:41.581Z,6.88
2022-09-06T10:08:12.206Z,7.53
2022-09-06T10:10:41.121Z,6.93
2022-09-06T10:13:14.039Z,6.65
2022-09-06T10:15:41.180Z,8.07
2022-09-06T10:18:16.866Z,6.60
2022-09-06T10:20:50.025Z,5.88
2022-09-06T10:26:21.268Z,5.70
2022-09-06T10:28:47.812Z,6.57
2022-09-06T10:31:44.667Z,7.10
2022-09-06T10:34:44.346Z,6.53
2022-09-06T10:37:23.613Z,6.97
2022-09-06T10:39:56.240Z,6.35
2022-09-06T10:42:33.939Z,5.77
2022-09-06T10:45:16.684Z,5.88
2022-09-06T10:47:58.753Z,7.25
2022-09-06T10:50:33.824Z,6.13
2022-09-06T10:53:06.664Z,5.60
2022-09-06T10:55:33.692Z,6.83
2022-09-06T10:58:19.358Z,5.60
2022-09-06T11:00:49.123Z,6.35
2022-09-06T11:06:12.707Z,4.45
2022-09-06T11:08:47.754Z,4.73
2022-09-06T11:11:20.684Z,4.85
2022-09-06T11:13:47.341Z,5.90
2022-09-06T11:16:18.953Z,5.90
2022-09-06T11:18:50.230Z,5.03
2022-09-06T11:21:39.443Z,5.13
2022-09-06T11:24:12.448Z,6.05
2022-09-06T11:26:55.727Z,4.97
2022-09-06T11:29:25.336Z,4.35
2022-09-06T11:34:41.478Z,5.03
2022-09-06T11:37:25.497Z,5.65
2022-09-06T11:43:12.389Z,5.03
2022-09-06T11:45:41.723Z,3.53
2022-09-06T11:48:31.005Z,5.63
2022-09-06T11:51:03.502Z,3.60
2022-09-06T11:53:34.058Z,4.03
2022-09-06T11:56:23.101Z,4.68
2022-09-06T11:58:56.345Z,3.95
2022-09-06T12:01:39.761Z,4.30
2022-09-06T12:04:10.277Z,4.30
2022-09-06T12:06:39.642Z,4.78
2022-09-06T12:09:29.826Z,5.43
2022-09-06T12:11:57.667Z,4.82
2022-09-06T12:14:32.098Z,4.00
2022-09-06T12:17:25.973Z,6.38
2022-09-06T12:19:55.095Z,4.93
2022-09-06T12:22:50.828Z,7.10
2022-09-06T12:25:19.598Z,6.60
2022-09-06T12:27:55.368Z,4.50
2022-09-06T12:30:33.837Z,5.22
2022-09-06T12:33:02.456Z,4.70
2022-09-06T12:38:23.361Z,8.25
2022-09-06T12:40:52.579Z,5.77
2022-09-06T12:43:19.746Z,5.65
2022-09-06T12:45:48.707Z,5.30
2022-09-06T12:48:26.461Z,4.72
2022-09-06T12:51:01.262Z,4.88
2022-09-06T12:53:27.973Z,6.07
2022-09-06T12:56:05.344Z,5.70
2022-09-06T12:58:32.533Z,5.95
2022-09-06T13:01:07.526Z,5.65
2022-09-06T13:03:39.692Z,5.57
2022-09-06T13:06:07.899Z,6.73
2022-09-06T13:08:39.129Z,6.28
2022-09-06T13:11:12.828Z,5.72
2022-09-06T13:13:47.231Z,6.72
2022-09-06T13:16:20.112Z,5.10
2022-09-06T13:18:46.686Z,5.50
2022-09-06T13:21:25.244Z,5.28
2022-09-06T13:23:52.171Z,6.25
2022-09-06T13:26:34.723Z,5.80
2022-09-06T13:29:11.893Z,6.57
2022-09-06T13:31:38.668Z,5.80
2022-09-06T13:34:05.337Z,5.60
2022-09-06T13:36:32.995Z,7.43
2022-09-06T13:38:59.954Z,7.93
2022-09-06T13:41:40.471Z,4.93
2022-09-06T13:44:17.750Z,5.30
2022-09-06T13:46:44.425Z,5.15
2022-09-06T13:49:11.069Z,4.20
2022-09-06T13:51:38.685Z,6.10
2022-09-06T13:54:06.861Z,6.47
2022-09-06T13:56:33.441Z,4.20
2022-09-06T13:59:01.478Z,5.10
2022-09-06T14:01:28.179Z,5.55
2022-09-06T14:03:55.126Z,5.45
2022-09-06T14:06:22.094Z,5.38
2022-09-06T14:09:06.473Z,6.00
2022-09-06T14:11:34.504Z,4.60
2022-09-06T14:14:02.540Z,6.28
2022-09-06T14:16:29.176Z,6.38
2022-09-06T14:18:55.819Z,5.13
2022-09-06T14:21:22.648Z,5.87
2022-09-06T14:23:49.523Z,5.35
2022-09-06T14:26:16.193Z,5.65
2022-09-06T14:28:42.758Z,6.93
2022-09-06T14:31:11.708Z,5.20
2022-09-06T14:33:38.350Z,5.63
2022-09-06T14:36:07.467Z,5.10
2022-09-06T14:38:36.213Z,6.20
2022-09-06T14:41:03.066Z,4.78
2022-09-06T14:43:29.803Z,4.80
2022-09-06T14:46:02.618Z,4.70
2022-09-06T14:48:31.115Z,5.97
2022-09-06T14:50:57.737Z,5.50
2022-09-06T14:53:39.753Z,4.53
2022-09-06T14:56:07.956Z,5.63
2022-09-06T14:58:36.533Z,4.90
2022-09-06T15:01:10.998Z,5.60
2022-09-06T15:06:28.954Z,5.25
2022-09-06T15:08:59.383Z,6.72
2022-09-06T15:11:30.959Z,6.50
2022-09-06T15:13:57.816Z,6.63
2022-09-06T15:16:24.479Z,6.00
2022-09-06T15:18:53.588Z,6.50
2022-09-06T15:21:20.319Z,5.10
2022-09-06T15:23:47.014Z,4.80
2022-09-06T15:26:14.620Z,6.43
2022-09-06T15:28:42.831Z,5.85
2022-09-06T15:31:10.406Z,5.80
2022-09-06T15:33:38.209Z,5.88
2022-09-06T15:36:08.506Z,6.10
2022-09-06T15:38:36.005Z,5.60
2022-09-06T15:41:08.273Z,5.18
2022-09-06T15:43:35.694Z,5.18
2022-09-06T15:46:02.399Z,5.57
2022-09-06T15:48:29.087Z,5.43
2022-09-06T15:50:55.712Z,5.40
2022-09-06T15:53:23.770Z,5.85
2022-09-06T15:55:58.085Z,5.45
2022-09-06T15:58:25.618Z,5.60
2022-09-06T16:01:07.185Z,6.83
2022-09-06T16:03:36.873Z,4.93
2022-09-06T16:08:57.231Z,6.05
2022-09-06T16:11:23.943Z,5.97
2022-09-06T16:13:50.705Z,8.90
2022-09-06T16:16:17.604Z,6.03
2022-09-06T16:18:46.084Z,5.53
2022-09-06T16:21:15.136Z,5.05
2022-09-06T16:23:42.348Z,6.00
2022-09-06T16:26:10.324Z,5.23
2022-09-06T16:28:37.729Z,7.13
2022-09-06T16:31:09.657Z,5.25
2022-09-06T16:33:38.091Z,5.10
2022-09-06T16:36:07.194Z,6.43
2022-09-06T16:38:33.968Z,5.60
2022-09-06T16:41:08.127Z,4.32
2022-09-06T16:43:36.315Z,5.38
2022-09-06T16:46:03.660Z,5.20
2022-09-06T16:48:31.523Z,5.30
2022-09-06T16:50:58.123Z,5.00
2022-09-06T16:53:24.907Z,5.80
2022-09-06T16:55:51.551Z,6.65
2022-09-06T16:58:18.153Z,7.72
2022-09-06T17:00:46.117Z,5.57
2022-09-06T17:03:13.181Z,5.13
2022-09-06T17:05:40.337Z,5.18
2022-09-06T17:08:07.075Z,6.55
2022-09-06T17:10:37.167Z,5.57
2022-09-06T17:13:03.803Z,6.25
2022-09-06T17:15:30.432Z,6.10
2022-09-06T17:17:58.412Z,7.90
2022-09-06T17:20:25.152Z,5.25
2022-09-06T17:22:51.725Z,4.70
2022-09-06T17:25:18.319Z,5.47
2022-09-06T17:27:44.887Z,7.67
2022-09-06T17:30:12.153Z,7.20
2022-09-06T17:32:38.760Z,5.40
2022-09-06T17:35:07.387Z,5.80
2022-09-06T17:37:34.023Z,5.20
2022-09-06T17:40:00.639Z,5.13
2022-09-06T17:42:27.280Z,5.70
2022-09-06T17:44:53.988Z,5.05
2022-09-06T17:47:20.614Z,6.80
2022-09-06T17:49:47.211Z,4.90
2022-09-06T17:52:15.173Z,7.33
2022-09-06T17:54:41.784Z,5.93
2022-09-06T17:57:08.441Z,5.55
2022-09-06T17:59:35.966Z,7.15
2022-09-06T18:02:03.369Z,6.03
2022-09-06T18:04:30.063Z,7.10
2022-09-06T18:06:56.740Z,6.22
2022-09-06T18:09:24.719Z,5.90
2022-09-06T18:11:51.428Z,5.18
2022-09-06T18:14:18.851Z,5.63
2022-09-06T18:16:46.004Z,5.53
2022-09-06T18:19:13.567Z,5.03
2022-09-06T18:21:40.220Z,6.80
2022-09-06T18:24:08.011Z,6.55
2022-09-06T18:26:36.241Z,6.07
2022-09-06T18:29:03.308Z,7.20
2022-09-06T18:31:29.977Z,7.00
2022-09-06T18:33:56.605Z,6.50
2022-09-06T18:36:23.216Z,6.22
2022-09-06T18:38:49.949Z,7.47
2022-09-06T18:41:16.871Z,6.53
2022-09-06T18:43:44.884Z,6.93
2022-09-06T18:46:12.942Z,4.45
2022-09-06T18:48:40.379Z,7.82
2022-09-06T18:51:08.522Z,4.65
2022-09-06T18:53:35.483Z,10.07
2022-09-06T18:56:02.792Z,5.95
2022-09-06T18:58:29.731Z,5.93
2022-09-06T19:01:03.583Z,7.00
2022-09-06T19:03:31.128Z,6.28
2022-09-06T19:06:02.324Z,6.23
2022-09-06T19:08:28.988Z,6.53
2022-09-06T19:10:59.347Z,5.93
2022-09-06T19:13:25.929Z,7.07
2022-09-06T19:15:52.655Z,6.55
2022-09-06T19:18:20.629Z,5.87
2022-09-06T19:20:56.814Z,5.40
2022-09-06T19:23:23.985Z,5.68
2022-09-06T19:25:56.258Z,5.55
2022-09-06T19:28:23.074Z,6.65
2022-09-06T19:30:49.779Z,6.90
2022-09-06T19:33:16.392Z,5.35
2022-09-06T19:36:01.149Z,5.60
2022-09-06T19:38:47.223Z,6.40
2022-09-06T19:41:17.985Z,5.35
2022-09-06T19:43:44.592Z,7.00
2022-09-06T19:46:11.940Z,5.20
2022-09-06T19:48:43.876Z,5.00
2022-09-06T19:51:12.140Z,6.55
2022-09-06T19:53:39.826Z,7.90
2022-09-06T19:56:10.161Z,6.53
2022-09-06T19:58:36.764Z,6.03
2022-09-06T20:01:03.661Z,8.60
2022-09-06T20:03:30.294Z,6.97
2022-09-06T20:05:57.775Z,6.00
2022-09-06T20:08:26.477Z,6.43
2022-09-06T20:10:53.838Z,6.03
2022-09-06T20:13:20.987Z,7.40
2022-09-06T20:15:47.675Z,7.05
2022-09-06T20:18:14.573Z,5.93
2022-09-06T20:20:41.182Z,8.63
2022-09-06T20:23:08.196Z,6.87
2022-09-06T20:25:36.272Z,5.80
2022-09-06T20:28:03.507Z,6.00
2022-09-06T20:30:30.642Z,7.88
2022-09-06T20:32:57.401Z,8.38
2022-09-06T20:35:24.005Z,8.13
2022-09-06T20:37:50.639Z,5.97
2022-09-06T20:40:17.363Z,8.23
2022-09-06T20:42:45.360Z,6.53
2022-09-06T20:45:12.172Z,7.00
2022-09-06T20:47:38.834Z,6.97
2022-09-06T20:50:06.170Z,6.40
2022-09-06T20:52:32.893Z,5.97
2022-09-06T20:54:59.584Z,7.32
2022-09-06T20:57:26.163Z,6.68
2022-09-06T20:59:54.308Z,7.57
2022-09-06T21:02:21.156Z,6.60
2022-09-06T21:04:47.752Z,6.43
2022-09-06T21:07:14.482Z,5.90
2022-09-06T21:09:41.067Z,6.72
2022-09-06T21:12:08.020Z,7.65
2022-09-06T21:14:34.620Z,6.53
2022-09-06T21:17:02.607Z,7.60
2022-09-06T21:19:29.335Z,6.43
2022-09-06T21:21:55.929Z,7.25
2022-09-06T21:24:22.553Z,7.38
2022-09-06T21:26:49.145Z,7.07
2022-09-06T21:29:15.739Z,6.65
2022-09-06T21:31:42.445Z,7.50
2022-09-06T21:34:15.692Z,6.17
2022-09-06T21:36:43.547Z,9.27
2022-09-06T21:39:11.779Z,7.28
2022-09-06T21:41:39.355Z,8.85
2022-09-06T21:44:07.014Z,7.82
2022-09-06T21:46:35.711Z,6.83
2022-09-06T21:49:04.490Z,7.40
2022-09-06T21:51:32.678Z,7.07
2022-09-06T21:54:00.265Z,7.95
2022-09-06T21:56:26.984Z,7.75
2022-09-06T21:58:55.485Z,7.00
2022-09-06T22:01:22.758Z,6.77
2022-09-06T22:03:49.826Z,7.32
2022-09-06T22:06:17.916Z,6.45
2022-09-06T22:08:46.681Z,8.77
2022-09-06T22:11:17.305Z,6.47
2022-09-06T22:13:44.388Z,7.77
2022-09-06T22:16:12.230Z,7.07
2022-09-06T22:18:39.111Z,7.25
2022-09-06T22:21:08.336Z,6.93
2022-09-06T22:23:35.354Z,7.45
2022-09-06T22:26:05.432Z,7.63
2022-09-06T22:28:32.712Z,6.18
2022-09-06T22:30:59.870Z,7.97
2022-09-06T22:33:26.616Z,8.18
2022-09-06T22:35:53.572Z,7.22
2022-09-06T22:38:20.262Z,7.75
2022-09-06T22:40:46.885Z,7.43
2022-09-06T22:43:15.285Z,7.63
2022-09-06T22:45:42.189Z,7.50
2022-09-06T22:48:08.794Z,6.70
2022-09-06T22:50:35.440Z,9.80
2022-09-06T22:53:02.123Z,8.77
2022-09-06T22:55:28.840Z,7.13
2022-09-06T22:57:55.532Z,6.50
2022-09-06T23:00:23.805Z,7.47
2022-09-06T23:02:50.388Z,6.68
2022-09-06T23:05:17.141Z,7.28
2022-09-06T23:07:43.741Z,6.72
2022-09-06T23:10:10.478Z,7.88
2022-09-06T23:12:37.079Z,6.17
2022-09-06T23:15:04.483Z,5.80
2022-09-06T23:17:32.612Z,6.80
2022-09-06T23:19:59.440Z,7.15
2022-09-06T23:22:26.197Z,6.50
2022-09-06T23:24:52.792Z,6.53
2022-09-06T23:27:19.387Z,7.37
2022-09-06T23:29:45.986Z,7.63
2022-09-06T23:32:12.751Z,8.35
2022-09-06T23:34:40.701Z,6.22
2022-09-06T23:37:07.321Z,6.70
2022-09-06T23:39:33.988Z,8.23
2022-09-06T23:42:00.655Z,6.40
2022-09-06T23:44:27.330Z,6.77
2022-09-06T23:46:53.982Z,7.30
2022-09-06T23:49:20.604Z,6.75
2022-09-06T23:51:48.559Z,7.25
2022-09-06T23:54:15.338Z,6.95
2022-09-06T23:56:41.952Z,8.18
2022-09-06T23:59:08.648Z,7.80
